createdAt,value
2022-11-20T13:16:14.368Z,27.70
2022-11-20T13:17:11.426Z,66.60
2022-11-20T13:18:11.217Z,69.90
2022-11-20T13:19:11.023Z,62.70
2022-11-20T13:20:11.096Z,62.60
2022-11-20T13:21:10.894Z,67.80
2022-11-20T13:22:10.969Z,77.70
2022-11-20T13:23:10.932Z,68.00
2022-11-20T13:24:10.963Z,63.70
2022-11-20T13:25:16.193Z,62.70
2022-11-20T13:26:12.888Z,62.10
2022-11-20T13:27:10.890Z,68.50
2022-11-20T13:28:10.896Z,65.50
2022-11-20T13:29:10.883Z,67.00
2022-11-20T13:30:10.882Z,71.80
2022-11-20T13:31:10.918Z,65.20
2022-11-20T13:32:10.862Z,67.10
2022-11-20T13:33:10.880Z,75.20
2022-11-20T13:34:10.984Z,66.40
2022-11-20T13:35:10.863Z,63.70
2022-11-20T13:36:10.832Z,65.50
2022-11-20T13:37:10.811Z,65.70
2022-11-20T13:38:10.837Z,72.30
2022-11-20T13:39:10.860Z,68.30
2022-11-20T13:40:11.598Z,65.70
2022-11-20T13:41:10.831Z,70.10
2022-11-20T13:42:10.820Z,68.60
2022-11-20T13:43:10.802Z,70.60
2022-11-20T13:44:10.828Z,70.90
2022-11-20T13:45:10.798Z,64.70
2022-11-20T13:46:10.801Z,72.30
2022-11-20T13:47:10.761Z,79.80
2022-11-20T13:48:10.762Z,75.80
2022-11-20T13:49:10.764Z,82.00
2022-11-20T13:50:10.700Z,76.30
2022-11-20T13:51:10.758Z,90.50
2022-11-20T13:52:10.777Z,86.90
2022-11-20T13:53:10.704Z,78.20
2022-11-20T13:54:10.728Z,75.70
2022-11-20T13:55:10.795Z,81.40
2022-11-20T13:56:10.730Z,75.30
2022-11-20T13:57:10.720Z,76.10
2022-11-20T13:58:10.748Z,80.50
2022-11-20T13:59:14.716Z,74.10
2022-11-20T14:00:11.798Z,73.60
2022-11-20T14:01:10.664Z,73.20
2022-11-20T14:02:10.637Z,78.90
2022-11-20T14:03:10.631Z,81.30
2022-11-20T14:04:10.634Z,89.10
2022-11-20T14:05:10.654Z,92.80
2022-11-20T14:06:10.670Z,79.40
2022-11-20T14:07:10.676Z,77.20
2022-11-20T14:08:10.631Z,74.80
2022-11-20T14:09:10.642Z,72.90
2022-11-20T14:10:10.646Z,68.50
2022-11-20T14:11:10.617Z,79.90
2022-11-20T14:12:11.930Z,72.30
2022-11-20T14:13:10.597Z,70.90
2022-11-20T14:14:10.611Z,88.80
2022-11-20T14:15:10.580Z,89.70
2022-11-20T14:16:10.564Z,87.40
2022-11-20T14:17:10.588Z,86.40
2022-11-20T14:18:10.557Z,95.70
2022-11-20T14:19:10.575Z,95.30
2022-11-20T14:20:10.633Z,102.70
2022-11-20T14:21:10.508Z,86.40
2022-11-20T14:22:11.516Z,87.50
2022-11-20T14:23:10.605Z,89.30
2022-11-20T14:24:10.501Z,73.60
2022-11-20T14:25:11.294Z,74.60
2022-11-20T14:26:10.508Z,85.00
2022-11-20T14:27:10.533Z,79.20
2022-11-20T14:28:10.499Z,91.70
2022-11-20T14:29:10.511Z,96.10
2022-11-20T14:30:10.658Z,81.60
2022-11-20T14:31:10.434Z,83.80
2022-11-20T14:32:10.435Z,84.90
2022-11-20T14:33:10.475Z,86.80
2022-11-20T14:34:10.482Z,82.90
2022-11-20T14:35:10.431Z,81.20
2022-11-20T14:36:10.447Z,97.90
2022-11-20T14:37:15.255Z,88.60
2022-11-20T14:38:12.450Z,117.00
2022-11-20T14:39:10.382Z,78.90
2022-11-20T14:40:10.438Z,93.50
2022-11-20T14:41:10.444Z,99.30
2022-11-20T14:42:10.381Z,96.70
2022-11-20T14:43:10.377Z,96.30
2022-11-20T14:44:10.393Z,98.40
2022-11-20T14:45:10.427Z,101.60
2022-11-20T14:46:10.350Z,92.90
2022-11-20T14:47:10.343Z,102.20
2022-11-20T14:48:10.330Z,110.90
2022-11-20T14:49:10.308Z,118.00
2022-11-20T14:50:10.370Z,99.70
2022-11-20T14:51:10.302Z,81.80
2022-11-20T14:52:10.390Z,92.60
2022-11-20T14:53:10.291Z,84.40
2022-11-20T14:54:10.274Z,77.10
2022-11-20T14:55:10.264Z,81.80
2022-11-20T14:56:10.302Z,87.00
2022-11-20T14:57:10.307Z,94.90
2022-11-20T14:58:10.326Z,88.80
2022-11-20T14:59:10.297Z,87.20
2022-11-20T15:00:10.268Z,113.90
2022-11-20T15:01:10.270Z,100.70
2022-11-20T15:02:10.237Z,106.90
2022-11-20T15:03:10.244Z,85.70
2022-11-20T15:04:10.316Z,82.90
2022-11-20T15:05:10.234Z,88.90
2022-11-20T15:06:10.172Z,74.30
2022-11-20T15:07:10.249Z,87.50
2022-11-20T15:08:10.238Z,100.80
2022-11-20T15:09:10.227Z,98.00
2022-11-20T15:10:10.225Z,89.40
2022-11-20T15:11:10.182Z,79.30
2022-11-20T15:12:10.136Z,97.20
2022-11-20T15:13:12.985Z,119.60
2022-11-20T15:14:11.189Z,117.50
2022-11-20T15:15:10.175Z,114.60
2022-11-20T15:16:10.180Z,112.60
2022-11-20T15:17:10.184Z,106.40
2022-11-20T15:18:10.132Z,108.00
2022-11-20T15:19:10.141Z,103.80
2022-11-20T15:20:10.109Z,121.80
2022-11-20T15:21:10.159Z,125.20
2022-11-20T15:22:10.043Z,110.60
2022-11-20T15:23:10.076Z,102.90
2022-11-20T15:24:10.092Z,96.30
2022-11-20T15:25:10.073Z,144.60
2022-11-20T15:26:10.399Z,99.30
2022-11-20T15:27:10.148Z,106.20
2022-11-20T15:28:10.075Z,89.60
2022-11-20T15:29:09.998Z,86.10
2022-11-20T15:30:10.055Z,93.20
2022-11-20T15:31:10.045Z,86.10
2022-11-20T15:32:13.346Z,83.60
2022-11-20T15:33:11.078Z,93.20
2022-11-20T15:34:10.703Z,116.60
2022-11-20T15:35:09.990Z,110.50
2022-11-20T15:36:10.022Z,100.50
2022-11-20T15:37:10.031Z,126.90
2022-11-20T15:38:10.029Z,114.00
2022-11-20T15:39:10.041Z,107.50
2022-11-20T15:40:09.974Z,84.80
2022-11-20T15:41:10.068Z,87.50
2022-11-20T15:42:10.011Z,90.20
2022-11-20T15:43:13.442Z,120.60
2022-11-20T15:44:10.951Z,97.80
2022-11-20T15:45:09.996Z,106.20
2022-11-20T15:46:10.273Z,111.90
2022-11-20T15:47:09.928Z,119.80
2022-11-20T15:48:10.178Z,101.70
2022-11-20T15:49:11.209Z,126.90
2022-11-20T15:50:09.922Z,116.90
2022-11-20T15:51:09.943Z,112.90
2022-11-20T15:52:09.916Z,99.10
2022-11-20T15:53:09.909Z,94.10
2022-11-20T15:54:09.869Z,94.60
2022-11-20T15:55:10.072Z,102.30
2022-11-20T15:56:11.161Z,86.60
